WMT3345 LROP-LGAV
Flight info
| Callsign | WMT3345 |
|---|---|
| Flight time | 1h 26m |
| Altitude | 33000 |
| Route | POLUN DCT TIMUR N181 NIKTI DCT KOROS/N0449F320 UT162 NEVRA |
| Aircraft | A321/M-SDE3FGHIRWY/LB1 |
Departure
| Time | 2026-05-04 17:35 |
|---|---|
| Airport | Bucharest Henri Coandă International Airport (LROP) |
Arrival
| Time | 2026-05-04 19:02 |
|---|---|
| Airport | Athens Eleftherios Venizelos International Airport (LGAV) |
| Time | Latitude | Longitude | Altitude | Speed | Heading |
|---|---|---|---|---|---|
| 2026-05-04 17:01 | 44.57010 | 26.08080 | 323 ft | 0 kts | 354° |
| 2026-05-04 17:26 | 44.56966 | 26.08086 | 322 ft | 4 kts | 7° |
| 2026-05-04 17:26 | 44.56929 | 26.08041 | 321 ft | 0 kts | 84° |
| 2026-05-04 17:31 | 44.56932 | 26.08075 | 320 ft | 4 kts | 84° |
| 2026-05-04 17:31 | 44.56949 | 26.08299 | 321 ft | 11 kts | 84° |
| 2026-05-04 17:32 | 44.56901 | 26.08507 | 322 ft | 12 kts | 72° |
| 2026-05-04 17:33 | 44.57156 | 26.08516 | 321 ft | 14 kts | 354° |
| 2026-05-04 17:33 | 44.57253 | 26.08502 | 322 ft | 14 kts | 354° |
| 2026-05-04 17:34 | 44.57567 | 26.08456 | 323 ft | 16 kts | 355° |
| 2026-05-04 17:34 | 44.57656 | 26.08450 | 323 ft | 8 kts | 22° |
| 2026-05-04 17:35 | 44.57678 | 26.08642 | 323 ft | 43 kts | 84° |
| 2026-05-04 17:35 | 44.57831 | 26.10701 | 324 ft | 160 kts | 84° |
| 2026-05-04 17:35 | 44.57947 | 26.12269 | 944 ft | 154 kts | 84° |
| 2026-05-04 17:36 | 44.57994 | 26.13809 | 1472 ft | 162 kts | 92° |
| 2026-05-04 17:36 | 44.57894 | 26.15404 | 2006 ft | 169 kts | 101° |
| 2026-05-04 17:36 | 44.57257 | 26.16873 | 2212 ft | 190 kts | 143° |
| 2026-05-04 17:36 | 44.55975 | 26.17516 | 2361 ft | 208 kts | 180° |
| 2026-05-04 17:37 | 44.54551 | 26.16926 | 2492 ft | 225 kts | 216° |
| 2026-05-04 17:37 | 44.53515 | 26.15191 | 2570 ft | 245 kts | 249° |
| 2026-05-04 17:37 | 44.52941 | 26.12854 | 2932 ft | 260 kts | 256° |
| 2026-05-04 17:37 | 44.52441 | 26.10378 | 3546 ft | 267 kts | 257° |
| 2026-05-04 17:38 | 44.51935 | 26.07854 | 4193 ft | 272 kts | 256° |
| 2026-05-04 17:38 | 44.51416 | 26.05293 | 4873 ft | 276 kts | 256° |
| 2026-05-04 17:38 | 44.50886 | 26.02700 | 5568 ft | 278 kts | 257° |
| 2026-05-04 17:38 | 44.50338 | 26.00083 | 6195 ft | 283 kts | 257° |
| 2026-05-04 17:39 | 44.48575 | 25.95052 | 7389 ft | 297 kts | 241° |
| 2026-05-04 17:39 | 44.47472 | 25.92598 | 8022 ft | 300 kts | 241° |
| 2026-05-04 17:39 | 44.46348 | 25.90118 | 8668 ft | 304 kts | 241° |
| 2026-05-04 17:40 | 44.45207 | 25.87606 | 9315 ft | 307 kts | 241° |
| 2026-05-04 17:40 | 44.44052 | 25.85062 | 9952 ft | 311 kts | 242° |
| 2026-05-04 17:40 | 44.42872 | 25.82466 | 10303 ft | 325 kts | 241° |
| 2026-05-04 17:40 | 44.41620 | 25.79703 | 10453 ft | 346 kts | 241° |
| 2026-05-04 17:41 | 44.40293 | 25.76781 | 10569 ft | 366 kts | 240° |
| 2026-05-04 17:41 | 44.38896 | 25.73699 | 10687 ft | 385 kts | 240° |
| 2026-05-04 17:41 | 44.37440 | 25.70495 | 11050 ft | 394 kts | 240° |
| 2026-05-04 17:41 | 44.35957 | 25.67247 | 11580 ft | 399 kts | 239° |
| 2026-05-04 17:42 | 44.34450 | 25.63956 | 12132 ft | 403 kts | 239° |
| 2026-05-04 17:42 | 44.32928 | 25.60637 | 12693 ft | 407 kts | 239° |
| 2026-05-04 17:42 | 44.31397 | 25.57300 | 13252 ft | 411 kts | 238° |
| 2026-05-04 17:42 | 44.29866 | 25.53967 | 13806 ft | 415 kts | 238° |
| 2026-05-04 17:43 | 44.28284 | 25.50516 | 14322 ft | 418 kts | 238° |
| 2026-05-04 17:43 | 44.26710 | 25.47088 | 14860 ft | 421 kts | 238° |
| 2026-05-04 17:43 | 44.25125 | 25.43643 | 15406 ft | 423 kts | 238° |
| 2026-05-04 17:43 | 44.23552 | 25.40230 | 15980 ft | 425 kts | 238° |
| 2026-05-04 17:44 | 44.21951 | 25.36752 | 16535 ft | 427 kts | 238° |
| 2026-05-04 17:44 | 44.20338 | 25.33250 | 17072 ft | 430 kts | 238° |
| 2026-05-04 17:44 | 44.18717 | 25.29732 | 17566 ft | 434 kts | 238° |
| 2026-05-04 17:44 | 44.17076 | 25.26179 | 18073 ft | 437 kts | 238° |
| 2026-05-04 17:45 | 44.15424 | 25.22608 | 18534 ft | 440 kts | 238° |
| 2026-05-04 17:45 | 44.13763 | 25.19025 | 18983 ft | 442 kts | 238° |
| 2026-05-04 17:45 | 44.12094 | 25.15431 | 19451 ft | 443 kts | 238° |
| 2026-05-04 17:45 | 44.10422 | 25.11838 | 19904 ft | 444 kts | 238° |
| 2026-05-04 17:46 | 44.08738 | 25.08229 | 20370 ft | 445 kts | 238° |
| 2026-05-04 17:46 | 44.07052 | 25.04621 | 20818 ft | 446 kts | 238° |
| 2026-05-04 17:46 | 44.05360 | 25.00994 | 21269 ft | 447 kts | 238° |
| 2026-05-04 17:46 | 44.03670 | 24.97372 | 21709 ft | 448 kts | 238° |
| 2026-05-04 17:47 | 44.01971 | 24.93738 | 22140 ft | 449 kts | 238° |
| 2026-05-04 17:47 | 44.00264 | 24.90100 | 22574 ft | 450 kts | 238° |
| 2026-05-04 17:47 | 43.98555 | 24.86455 | 22998 ft | 451 kts | 239° |
| 2026-05-04 17:47 | 43.96844 | 24.82803 | 23407 ft | 452 kts | 239° |
| 2026-05-04 17:48 | 43.95130 | 24.79148 | 23790 ft | 453 kts | 239° |
| 2026-05-04 17:48 | 43.93400 | 24.75470 | 24130 ft | 454 kts | 238° |
| 2026-05-04 17:48 | 43.91668 | 24.71798 | 24448 ft | 455 kts | 238° |
| 2026-05-04 17:48 | 43.89934 | 24.68130 | 24789 ft | 457 kts | 238° |
| 2026-05-04 17:49 | 43.88186 | 24.64444 | 25093 ft | 458 kts | 238° |
| 2026-05-04 17:49 | 43.86434 | 24.60748 | 25411 ft | 459 kts | 238° |
| 2026-05-04 17:49 | 43.84683 | 24.57055 | 25788 ft | 459 kts | 238° |
| 2026-05-04 17:49 | 43.82929 | 24.53359 | 26103 ft | 460 kts | 238° |
| 2026-05-04 17:50 | 43.81170 | 24.49655 | 26412 ft | 461 kts | 237° |
| 2026-05-04 17:50 | 43.79403 | 24.45941 | 26719 ft | 463 kts | 237° |
| 2026-05-04 17:50 | 43.77628 | 24.42217 | 27025 ft | 464 kts | 237° |
| 2026-05-04 17:50 | 43.75871 | 24.38535 | 27361 ft | 464 kts | 237° |
| 2026-05-04 17:51 | 43.74094 | 24.34818 | 27807 ft | 462 kts | 237° |
| 2026-05-04 17:51 | 43.72143 | 24.31297 | 28231 ft | 461 kts | 227° |
| 2026-05-04 17:51 | 43.69777 | 24.28344 | 28640 ft | 460 kts | 216° |
| 2026-05-04 17:51 | 43.67043 | 24.26046 | 29057 ft | 458 kts | 206° |
| 2026-05-04 17:52 | 43.64067 | 24.24494 | 29478 ft | 457 kts | 195° |
| 2026-05-04 17:52 | 43.60957 | 24.23708 | 29859 ft | 456 kts | 185° |
| 2026-05-04 17:52 | 43.57789 | 24.23554 | 30255 ft | 455 kts | 181° |
| 2026-05-04 17:52 | 43.54628 | 24.23460 | 30589 ft | 454 kts | 181° |
| 2026-05-04 17:53 | 43.51472 | 24.23368 | 30926 ft | 453 kts | 181° |
| 2026-05-04 17:53 | 43.48328 | 24.23274 | 31238 ft | 452 kts | 181° |
| 2026-05-04 17:53 | 43.45190 | 24.23178 | 31525 ft | 452 kts | 182° |
| 2026-05-04 17:53 | 43.42041 | 24.23079 | 31795 ft | 453 kts | 181° |
| 2026-05-04 17:54 | 43.38879 | 24.22979 | 32011 ft | 455 kts | 182° |
| 2026-05-04 17:54 | 43.35719 | 24.22874 | 32302 ft | 455 kts | 182° |
| 2026-05-04 17:54 | 43.32552 | 24.22767 | 32615 ft | 454 kts | 182° |
| 2026-05-04 17:54 | 43.29399 | 24.22663 | 32898 ft | 454 kts | 182° |
| 2026-05-04 17:55 | 43.26233 | 24.22561 | 33070 ft | 455 kts | 182° |
| 2026-05-04 17:55 | 43.23068 | 24.22463 | 33099 ft | 455 kts | 182° |
| 2026-05-04 17:55 | 43.16753 | 24.22275 | 33101 ft | 454 kts | 182° |
| 2026-05-04 17:56 | 43.11492 | 24.22122 | 33106 ft | 455 kts | 181° |
| 2026-05-04 17:56 | 43.04128 | 24.21805 | 33113 ft | 455 kts | 183° |
| 2026-05-04 17:57 | 42.98825 | 24.21420 | 33117 ft | 455 kts | 184° |
| 2026-05-04 17:57 | 42.92495 | 24.20941 | 33103 ft | 456 kts | 184° |
| 2026-05-04 17:58 | 42.86185 | 24.20508 | 33104 ft | 458 kts | 183° |
| 2026-05-04 17:58 | 42.79821 | 24.20106 | 33108 ft | 458 kts | 183° |
| 2026-05-04 17:59 | 42.73444 | 24.19716 | 33108 ft | 458 kts | 183° |
| 2026-05-04 18:00 | 42.57507 | 24.18674 | 33123 ft | 459 kts | 183° |
| 2026-05-04 18:01 | 42.51132 | 24.18258 | 33131 ft | 458 kts | 183° |
| 2026-05-04 18:01 | 42.44755 | 24.17858 | 33128 ft | 458 kts | 183° |
| 2026-05-04 18:02 | 42.35253 | 24.17251 | 33104 ft | 458 kts | 182° |
| 2026-05-04 18:02 | 42.28891 | 24.16846 | 33104 ft | 458 kts | 182° |
| 2026-05-04 18:03 | 42.22527 | 24.16446 | 33111 ft | 458 kts | 182° |
| 2026-05-04 18:03 | 42.16157 | 24.16045 | 33110 ft | 458 kts | 182° |
| 2026-05-04 18:04 | 42.09803 | 24.15639 | 33106 ft | 458 kts | 182° |
| 2026-05-04 18:05 | 42.00261 | 24.15026 | 33109 ft | 457 kts | 182° |
| 2026-05-04 18:05 | 41.93889 | 24.14625 | 33094 ft | 460 kts | 183° |
| 2026-05-04 18:06 | 41.84267 | 24.14026 | 33091 ft | 463 kts | 183° |
| 2026-05-04 18:06 | 41.77836 | 24.13626 | 33118 ft | 463 kts | 183° |
| 2026-05-04 18:07 | 41.71412 | 24.13220 | 33131 ft | 462 kts | 183° |
| 2026-05-04 18:07 | 41.64984 | 24.12818 | 33129 ft | 462 kts | 183° |
| 2026-05-04 18:08 | 41.58566 | 24.12406 | 33122 ft | 462 kts | 183° |
| 2026-05-04 18:08 | 41.52219 | 24.12968 | 33097 ft | 461 kts | 167° |
| 2026-05-04 18:09 | 41.39750 | 24.17186 | 33099 ft | 462 kts | 165° |
| 2026-05-04 18:10 | 41.33519 | 24.19265 | 33104 ft | 462 kts | 165° |
| 2026-05-04 18:10 | 41.27296 | 24.21335 | 33100 ft | 461 kts | 165° |
| 2026-05-04 18:11 | 41.21070 | 24.23411 | 33096 ft | 460 kts | 165° |
| 2026-05-04 18:11 | 41.14866 | 24.25485 | 33095 ft | 460 kts | 165° |
| 2026-05-04 18:12 | 41.08647 | 24.27555 | 33088 ft | 460 kts | 165° |
| 2026-05-04 18:12 | 41.02444 | 24.29615 | 33085 ft | 460 kts | 165° |
| 2026-05-04 18:13 | 40.96232 | 24.31672 | 33081 ft | 460 kts | 165° |
| 2026-05-04 18:14 | 40.86956 | 24.34740 | 33089 ft | 460 kts | 165° |
| 2026-05-04 18:14 | 40.80748 | 24.36788 | 33084 ft | 460 kts | 165° |
| 2026-05-04 18:15 | 40.68326 | 24.40862 | 33075 ft | 462 kts | 165° |
| 2026-05-04 18:16 | 40.62080 | 24.42906 | 33076 ft | 463 kts | 165° |
| 2026-05-04 18:16 | 40.55824 | 24.44963 | 33074 ft | 464 kts | 165° |
| 2026-05-04 18:17 | 40.46424 | 24.48029 | 33083 ft | 464 kts | 165° |
| 2026-05-04 18:18 | 40.37028 | 24.51082 | 33082 ft | 464 kts | 165° |
| 2026-05-04 18:18 | 40.30752 | 24.53122 | 33085 ft | 464 kts | 165° |
| 2026-05-04 18:19 | 40.21344 | 24.56163 | 33086 ft | 465 kts | 165° |
| 2026-05-04 18:19 | 40.15106 | 24.58175 | 33086 ft | 465 kts | 165° |
| 2026-05-04 18:20 | 40.08823 | 24.60201 | 33003 ft | 466 kts | 165° |
| 2026-05-04 18:20 | 40.05682 | 24.61213 | 32732 ft | 465 kts | 165° |
| 2026-05-04 18:20 | 40.02540 | 24.62225 | 32492 ft | 464 kts | 165° |
| 2026-05-04 18:21 | 39.99401 | 24.63236 | 32232 ft | 464 kts | 165° |
| 2026-05-04 18:21 | 39.96260 | 24.64243 | 31981 ft | 465 kts | 165° |
| 2026-05-04 18:21 | 39.93123 | 24.65249 | 31721 ft | 465 kts | 165° |
| 2026-05-04 18:21 | 39.89981 | 24.66256 | 31468 ft | 465 kts | 164° |
| 2026-05-04 18:22 | 39.86840 | 24.67263 | 31220 ft | 465 kts | 164° |
| 2026-05-04 18:22 | 39.83700 | 24.68271 | 30971 ft | 466 kts | 164° |
| 2026-05-04 18:22 | 39.80551 | 24.69281 | 30727 ft | 466 kts | 164° |
| 2026-05-04 18:22 | 39.77396 | 24.70288 | 30480 ft | 467 kts | 164° |
| 2026-05-04 18:23 | 39.74246 | 24.71287 | 30226 ft | 467 kts | 164° |
| 2026-05-04 18:23 | 39.71084 | 24.72293 | 29972 ft | 467 kts | 164° |
| 2026-05-04 18:23 | 39.67928 | 24.73297 | 29694 ft | 468 kts | 164° |
| 2026-05-04 18:23 | 39.64757 | 24.74305 | 29403 ft | 469 kts | 164° |
| 2026-05-04 18:24 | 39.61588 | 24.75312 | 29126 ft | 469 kts | 164° |
| 2026-05-04 18:24 | 39.58416 | 24.76319 | 28855 ft | 470 kts | 164° |
| 2026-05-04 18:24 | 39.55232 | 24.77330 | 28583 ft | 472 kts | 164° |
| 2026-05-04 18:24 | 39.52044 | 24.78340 | 28316 ft | 473 kts | 164° |
| 2026-05-04 18:25 | 39.48883 | 24.79341 | 28048 ft | 474 kts | 164° |
| 2026-05-04 18:25 | 39.45677 | 24.80356 | 27788 ft | 475 kts | 164° |
| 2026-05-04 18:25 | 39.42427 | 24.81387 | 27521 ft | 476 kts | 164° |
| 2026-05-04 18:25 | 39.39243 | 24.82397 | 27258 ft | 478 kts | 164° |
| 2026-05-04 18:26 | 39.36002 | 24.83419 | 27007 ft | 479 kts | 164° |
| 2026-05-04 18:26 | 39.32765 | 24.84438 | 26756 ft | 480 kts | 165° |
| 2026-05-04 18:26 | 39.29520 | 24.85455 | 26503 ft | 481 kts | 165° |
| 2026-05-04 18:26 | 39.26266 | 24.86477 | 26250 ft | 481 kts | 165° |
| 2026-05-04 18:27 | 39.23017 | 24.87497 | 26012 ft | 480 kts | 165° |
| 2026-05-04 18:27 | 39.19782 | 24.88512 | 25762 ft | 479 kts | 165° |
| 2026-05-04 18:27 | 39.16552 | 24.89522 | 25183 ft | 477 kts | 165° |
| 2026-05-04 18:27 | 39.13298 | 24.90400 | 24484 ft | 476 kts | 171° |
| 2026-05-04 18:28 | 39.09999 | 24.90639 | 23813 ft | 476 kts | 181° |
| 2026-05-04 18:28 | 39.06713 | 24.90182 | 23074 ft | 474 kts | 191° |
| 2026-05-04 18:28 | 39.03548 | 24.89106 | 22408 ft | 469 kts | 197° |
| 2026-05-04 18:28 | 39.00440 | 24.87900 | 21770 ft | 465 kts | 197° |
| 2026-05-04 18:29 | 38.97348 | 24.86704 | 21113 ft | 462 kts | 197° |
| 2026-05-04 18:29 | 38.94284 | 24.85523 | 20460 ft | 459 kts | 197° |
| 2026-05-04 18:29 | 38.91241 | 24.84354 | 19819 ft | 456 kts | 197° |
| 2026-05-04 18:29 | 38.88211 | 24.83194 | 19189 ft | 453 kts | 197° |
| 2026-05-04 18:30 | 38.82206 | 24.80891 | 17946 ft | 447 kts | 198° |
| 2026-05-04 18:30 | 38.79234 | 24.79746 | 17382 ft | 443 kts | 198° |
| 2026-05-04 18:30 | 38.76306 | 24.78622 | 16834 ft | 438 kts | 197° |
| 2026-05-04 18:31 | 38.73391 | 24.77511 | 16288 ft | 435 kts | 197° |
| 2026-05-04 18:31 | 38.70500 | 24.76407 | 15742 ft | 433 kts | 198° |
| 2026-05-04 18:31 | 38.67656 | 24.75320 | 15276 ft | 429 kts | 198° |
| 2026-05-04 18:31 | 38.64825 | 24.74239 | 15087 ft | 422 kts | 198° |
| 2026-05-04 18:32 | 38.62014 | 24.73168 | 15119 ft | 423 kts | 197° |
| 2026-05-04 18:32 | 38.59198 | 24.72096 | 15116 ft | 423 kts | 197° |
| 2026-05-04 18:32 | 38.56378 | 24.71017 | 15117 ft | 423 kts | 198° |
| 2026-05-04 18:32 | 38.53561 | 24.69939 | 15119 ft | 423 kts | 198° |
| 2026-05-04 18:33 | 38.50735 | 24.68858 | 15117 ft | 423 kts | 198° |
| 2026-05-04 18:33 | 38.47927 | 24.67784 | 15117 ft | 419 kts | 198° |
| 2026-05-04 18:33 | 38.45199 | 24.66744 | 15114 ft | 400 kts | 198° |
| 2026-05-04 18:33 | 38.42596 | 24.65758 | 15117 ft | 382 kts | 197° |
| 2026-05-04 18:34 | 38.40107 | 24.64818 | 15119 ft | 364 kts | 197° |
| 2026-05-04 18:34 | 38.37729 | 24.63921 | 15121 ft | 348 kts | 197° |
| 2026-05-04 18:34 | 38.35444 | 24.63061 | 15124 ft | 340 kts | 198° |
| 2026-05-04 18:34 | 38.33184 | 24.62209 | 15125 ft | 339 kts | 198° |
| 2026-05-04 18:35 | 38.30929 | 24.61357 | 15126 ft | 338 kts | 198° |
| 2026-05-04 18:35 | 38.28671 | 24.60504 | 15127 ft | 338 kts | 198° |
| 2026-05-04 18:35 | 38.26412 | 24.59646 | 15128 ft | 338 kts | 198° |
| 2026-05-04 18:35 | 38.24162 | 24.58793 | 15128 ft | 338 kts | 198° |
| 2026-05-04 18:36 | 38.21934 | 24.57952 | 15126 ft | 337 kts | 198° |
| 2026-05-04 18:36 | 38.19682 | 24.57103 | 15127 ft | 337 kts | 198° |
| 2026-05-04 18:36 | 38.17436 | 24.56257 | 15128 ft | 337 kts | 198° |
| 2026-05-04 18:36 | 38.15194 | 24.55383 | 15128 ft | 337 kts | 199° |
| 2026-05-04 18:37 | 38.12972 | 24.54446 | 15129 ft | 337 kts | 200° |
| 2026-05-04 18:37 | 38.10759 | 24.53479 | 15128 ft | 336 kts | 200° |
| 2026-05-04 18:37 | 38.08552 | 24.52505 | 15019 ft | 335 kts | 200° |
| 2026-05-04 18:37 | 38.06350 | 24.51534 | 14665 ft | 334 kts | 200° |
| 2026-05-04 18:38 | 38.04161 | 24.50574 | 14288 ft | 332 kts | 200° |
| 2026-05-04 18:38 | 38.01972 | 24.49622 | 13932 ft | 331 kts | 200° |
| 2026-05-04 18:38 | 37.99794 | 24.48683 | 13529 ft | 330 kts | 200° |
| 2026-05-04 18:38 | 37.97629 | 24.47755 | 13179 ft | 327 kts | 200° |
| 2026-05-04 18:39 | 37.95507 | 24.46848 | 13114 ft | 315 kts | 200° |
| 2026-05-04 18:39 | 37.93480 | 24.45984 | 13152 ft | 298 kts | 200° |
| 2026-05-04 18:39 | 37.91541 | 24.45156 | 13145 ft | 293 kts | 200° |
| 2026-05-04 18:39 | 37.89610 | 24.44330 | 13138 ft | 292 kts | 200° |
| 2026-05-04 18:40 | 37.87689 | 24.43507 | 13138 ft | 292 kts | 200° |
| 2026-05-04 18:40 | 37.85760 | 24.42681 | 13137 ft | 292 kts | 200° |
| 2026-05-04 18:40 | 37.83836 | 24.41857 | 13135 ft | 292 kts | 200° |
| 2026-05-04 18:40 | 37.81910 | 24.41029 | 13139 ft | 291 kts | 200° |
| 2026-05-04 18:41 | 37.79995 | 24.40208 | 13137 ft | 291 kts | 200° |
| 2026-05-04 18:41 | 37.78088 | 24.39392 | 13042 ft | 288 kts | 200° |
| 2026-05-04 18:41 | 37.76192 | 24.38583 | 12600 ft | 287 kts | 200° |
| 2026-05-04 18:41 | 37.74330 | 24.37789 | 12224 ft | 285 kts | 200° |
| 2026-05-04 18:42 | 37.72464 | 24.36994 | 11851 ft | 283 kts | 200° |
| 2026-05-04 18:42 | 37.70605 | 24.36201 | 11473 ft | 281 kts | 200° |
| 2026-05-04 18:42 | 37.68769 | 24.35383 | 11098 ft | 278 kts | 207° |
| 2026-05-04 18:42 | 37.67090 | 24.34210 | 10728 ft | 274 kts | 214° |
| 2026-05-04 18:43 | 37.65471 | 24.32948 | 10373 ft | 272 kts | 215° |
| 2026-05-04 18:43 | 37.63873 | 24.31696 | 10015 ft | 270 kts | 215° |
| 2026-05-04 18:43 | 37.62282 | 24.30449 | 9615 ft | 268 kts | 215° |
| 2026-05-04 18:43 | 37.60703 | 24.29218 | 9171 ft | 267 kts | 215° |
| 2026-05-04 18:44 | 37.59134 | 24.27998 | 8988 ft | 265 kts | 215° |
| 2026-05-04 18:44 | 37.58602 | 24.27584 | 8987 ft | 266 kts | 215° |
| 2026-05-04 18:44 | 37.55972 | 24.25543 | 8988 ft | 268 kts | 215° |
| 2026-05-04 18:44 | 37.54385 | 24.24310 | 8990 ft | 268 kts | 215° |
| 2026-05-04 18:45 | 37.52801 | 24.23078 | 8989 ft | 268 kts | 215° |
| 2026-05-04 18:45 | 37.51221 | 24.21848 | 8989 ft | 268 kts | 215° |
| 2026-05-04 18:45 | 37.49635 | 24.20616 | 8988 ft | 268 kts | 215° |
| 2026-05-04 18:45 | 37.48054 | 24.19389 | 8988 ft | 267 kts | 215° |
| 2026-05-04 18:46 | 37.46466 | 24.18154 | 8989 ft | 267 kts | 215° |
| 2026-05-04 18:46 | 37.44906 | 24.16942 | 8985 ft | 266 kts | 215° |
| 2026-05-04 18:46 | 37.43452 | 24.15552 | 8974 ft | 260 kts | 235° |
| 2026-05-04 18:46 | 37.42680 | 24.13576 | 8985 ft | 248 kts | 265° |
| 2026-05-04 18:47 | 37.42804 | 24.11489 | 8987 ft | 237 kts | 295° |
| 2026-05-04 18:47 | 37.43556 | 24.09659 | 8995 ft | 235 kts | 304° |
| 2026-05-04 18:47 | 37.44409 | 24.07905 | 8986 ft | 235 kts | 305° |
| 2026-05-04 18:47 | 37.45273 | 24.06155 | 8976 ft | 235 kts | 305° |
| 2026-05-04 18:48 | 37.46135 | 24.04402 | 8983 ft | 236 kts | 305° |
| 2026-05-04 18:48 | 37.47001 | 24.02640 | 8987 ft | 236 kts | 305° |
| 2026-05-04 18:48 | 37.47866 | 24.00877 | 8986 ft | 236 kts | 305° |
| 2026-05-04 18:48 | 37.48731 | 23.99118 | 8987 ft | 236 kts | 305° |
| 2026-05-04 18:49 | 37.49593 | 23.97360 | 8984 ft | 236 kts | 305° |
| 2026-05-04 18:49 | 37.50459 | 23.95596 | 8987 ft | 236 kts | 305° |
| 2026-05-04 18:49 | 37.51322 | 23.93837 | 8985 ft | 237 kts | 305° |
| 2026-05-04 18:49 | 37.52188 | 23.92070 | 8989 ft | 236 kts | 305° |
| 2026-05-04 18:50 | 37.53045 | 23.90311 | 8987 ft | 236 kts | 305° |
| 2026-05-04 18:50 | 37.53902 | 23.88555 | 8987 ft | 236 kts | 305° |
| 2026-05-04 18:50 | 37.54762 | 23.86791 | 8984 ft | 236 kts | 305° |
| 2026-05-04 18:50 | 37.55619 | 23.85033 | 8987 ft | 236 kts | 305° |
| 2026-05-04 18:51 | 37.56477 | 23.83272 | 8987 ft | 236 kts | 305° |
| 2026-05-04 18:51 | 37.57335 | 23.81510 | 8987 ft | 236 kts | 305° |
| 2026-05-04 18:51 | 37.58194 | 23.79749 | 8987 ft | 236 kts | 305° |
| 2026-05-04 18:51 | 37.59052 | 23.77989 | 8984 ft | 236 kts | 305° |
| 2026-05-04 18:52 | 37.59912 | 23.76227 | 8986 ft | 236 kts | 305° |
| 2026-05-04 18:52 | 37.60481 | 23.75061 | 8983 ft | 235 kts | 305° |
| 2026-05-04 18:52 | 37.61325 | 23.73316 | 8635 ft | 232 kts | 305° |
| 2026-05-04 18:52 | 37.62159 | 23.71581 | 8232 ft | 231 kts | 305° |
| 2026-05-04 18:53 | 37.63253 | 23.69285 | 7736 ft | 229 kts | 305° |
| 2026-05-04 18:53 | 37.64068 | 23.67570 | 7385 ft | 227 kts | 305° |
| 2026-05-04 18:53 | 37.64874 | 23.65869 | 7033 ft | 225 kts | 305° |
| 2026-05-04 18:53 | 37.65799 | 23.64316 | 6667 ft | 218 kts | 322° |
| 2026-05-04 18:54 | 37.66653 | 23.63632 | 6423 ft | 214 kts | 339° |
| 2026-05-04 18:54 | 37.68098 | 23.63327 | 6018 ft | 213 kts | 3° |
| 2026-05-04 18:54 | 37.69493 | 23.63889 | 5624 ft | 218 kts | 28° |
| 2026-05-04 18:54 | 37.70588 | 23.65272 | 5201 ft | 225 kts | 49° |
| 2026-05-04 18:55 | 37.71501 | 23.66873 | 4801 ft | 225 kts | 49° |
| 2026-05-04 18:55 | 37.73318 | 23.70053 | 4030 ft | 224 kts | 50° |
| 2026-05-04 18:55 | 37.74219 | 23.71627 | 3983 ft | 215 kts | 50° |
| 2026-05-04 18:56 | 37.75058 | 23.73099 | 3991 ft | 198 kts | 50° |
| 2026-05-04 18:56 | 37.75843 | 23.74469 | 3996 ft | 187 kts | 49° |
| 2026-05-04 18:56 | 37.76601 | 23.75783 | 3993 ft | 184 kts | 49° |
| 2026-05-04 18:56 | 37.77354 | 23.77084 | 3993 ft | 183 kts | 50° |
| 2026-05-04 18:57 | 37.78113 | 23.78362 | 3942 ft | 182 kts | 44° |
| 2026-05-04 18:57 | 37.79047 | 23.79419 | 3606 ft | 177 kts | 35° |
| 2026-05-04 18:57 | 37.80021 | 23.80373 | 3339 ft | 172 kts | 34° |
| 2026-05-04 18:57 | 37.80910 | 23.81226 | 3121 ft | 153 kts | 33° |
| 2026-05-04 18:58 | 37.81744 | 23.82017 | 2915 ft | 148 kts | 33° |
| 2026-05-04 18:58 | 37.82564 | 23.82794 | 2731 ft | 147 kts | 33° |
| 2026-05-04 18:58 | 37.83383 | 23.83570 | 2530 ft | 147 kts | 34° |
| 2026-05-04 18:58 | 37.84200 | 23.84344 | 2327 ft | 147 kts | 34° |
| 2026-05-04 18:59 | 37.85019 | 23.85120 | 2128 ft | 147 kts | 35° |
| 2026-05-04 18:59 | 37.85839 | 23.85897 | 1928 ft | 148 kts | 35° |
| 2026-05-04 18:59 | 37.86663 | 23.86678 | 1735 ft | 148 kts | 35° |
| 2026-05-04 18:59 | 37.87487 | 23.87459 | 1519 ft | 148 kts | 36° |
| 2026-05-04 19:00 | 37.88309 | 23.88243 | 1309 ft | 148 kts | 36° |
| 2026-05-04 19:00 | 37.89125 | 23.89015 | 1098 ft | 148 kts | 36° |
| 2026-05-04 19:00 | 37.89960 | 23.89807 | 892 ft | 148 kts | 36° |
| 2026-05-04 19:00 | 37.90786 | 23.90585 | 719 ft | 148 kts | 36° |
| 2026-05-04 19:01 | 37.91587 | 23.91363 | 513 ft | 147 kts | 36° |
| 2026-05-04 19:01 | 37.92411 | 23.92145 | 324 ft | 146 kts | 35° |
| 2026-05-04 19:01 | 37.93160 | 23.92851 | 292 ft | 118 kts | 37° |
| 2026-05-04 19:01 | 37.93676 | 23.93344 | 293 ft | 68 kts | 37° |
| 2026-05-04 19:02 | 37.93872 | 23.93555 | 296 ft | 25 kts | 54° |
| 2026-05-04 19:02 | 37.93950 | 23.93739 | 299 ft | 22 kts | 65° |
| 2026-05-04 19:02 | 37.93975 | 23.93822 | 301 ft | 6 kts | 68° |
| 2026-05-04 19:02 | 37.93983 | 23.93848 | 300 ft | 1 kts | 70° |
| 2026-05-04 19:03 | 37.93985 | 23.93855 | 300 ft | 1 kts | 69° |
| 2026-05-04 19:03 | 37.93990 | 23.93871 | 301 ft | 3 kts | 66° |
| 2026-05-04 19:03 | 37.93988 | 23.93896 | 302 ft | 2 kts | 126° |
| 2026-05-04 19:03 | 37.93965 | 23.93889 | 301 ft | 5 kts | 203° |
| 2026-05-04 19:04 | 37.93921 | 23.93852 | 300 ft | 10 kts | 216° |
| 2026-05-04 19:04 | 37.93858 | 23.93792 | 301 ft | 13 kts | 217° |
| 2026-05-04 19:04 | 37.93780 | 23.93718 | 301 ft | 15 kts | 217° |
| 2026-05-04 19:04 | 37.93687 | 23.93629 | 299 ft | 18 kts | 217° |
| 2026-05-04 19:05 | 37.93587 | 23.93535 | 300 ft | 17 kts | 217° |
| 2026-05-04 19:05 | 37.93490 | 23.93526 | 301 ft | 15 kts | 133° |
| 2026-05-04 19:05 | 37.93428 | 23.93633 | 301 ft | 15 kts | 127° |
| 2026-05-04 19:05 | 37.93362 | 23.93743 | 301 ft | 16 kts | 127° |
| 2026-05-04 19:06 | 37.93279 | 23.93834 | 301 ft | 17 kts | 167° |
| 2026-05-04 19:06 | 37.93170 | 23.93883 | 301 ft | 17 kts | 139° |
| 2026-05-04 19:06 | 37.93102 | 23.93989 | 302 ft | 8 kts | 127° |
| 2026-05-04 19:06 | 37.93066 | 23.94049 | 303 ft | 9 kts | 127° |
| 2026-05-04 19:07 | 37.93030 | 23.94110 | 302 ft | 2 kts | 127° |
| 2026-05-04 19:07 | 37.93016 | 23.94132 | 302 ft | 4 kts | 127° |
| 2026-05-04 19:07 | 37.92998 | 23.94162 | 303 ft | 5 kts | 127° |
| 2026-05-04 19:07 | 37.92978 | 23.94196 | 301 ft | 0 kts | 127° |
| 2026-05-04 19:08 | 37.92977 | 23.94197 | 301 ft | 0 kts | 127° |
| 2026-05-04 19:08 | 37.92975 | 23.94201 | 301 ft | 1 kts | 127° |
| 2026-05-04 19:08 | 37.92967 | 23.94214 | 302 ft | 2 kts | 127° |
| 2026-05-04 19:08 | 37.92955 | 23.94233 | 302 ft | 2 kts | 127° |
| 2026-05-04 19:09 | 37.92952 | 23.94246 | 301 ft | 1 kts | 95° |
| 2026-05-04 19:09 | 37.92957 | 23.94261 | 304 ft | 2 kts | 62° |
| 2026-05-04 19:09 | 37.92971 | 23.94279 | 303 ft | 4 kts | 40° |
| 2026-05-04 19:09 | 37.92994 | 23.94302 | 301 ft | 4 kts | 38° |
| 2026-05-04 19:10 | 37.93009 | 23.94316 | 301 ft | 1 kts | 37° |
| 2026-05-04 19:10 | 37.93010 | 23.94317 | 302 ft | 0 kts | 37° |
| 2026-05-04 19:10 | 37.93011 | 23.94319 | 302 ft | 1 kts | 37° |
| 2026-05-04 19:10 | 37.93013 | 23.94320 | 302 ft | 1 kts | 37° |
| 2026-05-04 19:11 | 37.93020 | 23.94326 | 302 ft | 0 kts | 37° |
| 2026-05-04 19:11 | 37.93021 | 23.94328 | 301 ft | 1 kts | 37° |
| 2026-05-04 19:11 | 37.93022 | 23.94328 | 301 ft | 0 kts | 37° |